createdAt,value
2016-06-10T00:00:30.989Z,46.46
2016-06-10T00:01:37.164Z,46.75
2016-06-10T00:02:34.105Z,46.36
2016-06-10T00:03:30.842Z,46.75
2016-06-10T00:04:33.798Z,46.55
2016-06-10T00:05:30.740Z,46.65
2016-06-10T00:06:33.726Z,46.75
2016-06-10T00:07:33.667Z,47.13
2016-06-10T00:08:30.608Z,46.75
2016-06-10T00:09:30.783Z,46.75
2016-06-10T00:10:33.520Z,47.03
2016-06-10T00:11:33.476Z,47.13
2016-06-10T00:12:30.620Z,47.22
2016-06-10T00:13:36.389Z,47.32
2016-06-10T00:14:30.329Z,47.22
2016-06-10T00:15:30.285Z,47.32
2016-06-10T00:16:30.226Z,47.51
2016-06-10T00:17:30.183Z,47.51
2016-06-10T00:18:39.170Z,47.32
2016-06-10T00:19:36.125Z,47.51
2016-06-10T00:20:33.050Z,47.32
2016-06-10T00:21:29.992Z,47.42
2016-06-10T00:22:32.948Z,47.51
2016-06-10T00:23:29.903Z,47.71
2016-06-10T00:24:29.860Z,47.42
2016-06-10T00:25:32.816Z,47.51
2016-06-10T00:26:29.772Z,47.8
2016-06-10T00:27:29.916Z,47.71
2016-06-10T00:28:32.685Z,47.71
2016-06-10T00:29:29.625Z,47.99
2016-06-10T00:30:29.581Z,48.09
2016-06-10T00:31:29.522Z,48.09
2016-06-10T00:32:29.493Z,47.99
2016-06-10T00:33:29.434Z,47.99
2016-06-10T00:34:29.391Z,47.99
2016-06-10T00:35:29.347Z,47.99
2016-06-10T00:36:29.303Z,48.28
2016-06-10T00:37:29.259Z,47.99
2016-06-10T00:38:29.216Z,48.28
2016-06-10T00:39:29.156Z,47.99
2016-06-10T00:40:29.112Z,48.57
2016-06-10T00:41:29.053Z,48.54
2016-06-10T00:42:32.024Z,48.28
2016-06-10T00:43:35.200Z,48.75
2016-06-10T00:44:31.937Z,48.73
2016-06-10T00:45:28.877Z,48.64
2016-06-10T00:46:28.834Z,49.02
2016-06-10T00:47:28.790Z,49.21
2016-06-10T00:48:32.247Z,49.11
2016-06-10T00:49:28.686Z,49.02
2016-06-10T00:50:31.643Z,49.21
2016-06-10T00:51:28.599Z,49.02
2016-06-10T00:52:31.555Z,48.83
2016-06-10T00:53:28.496Z,48.64
2016-06-10T00:54:28.671Z,49.02
2016-06-10T00:55:28.471Z,49.11
2016-06-10T00:56:28.364Z,49.02
2016-06-10T00:57:28.336Z,48.83
2016-06-10T00:58:28.277Z,48.83
2016-06-10T00:59:28.218Z,48.83
2016-06-10T01:00:31.377Z,49.21
2016-06-10T01:01:31.130Z,49.31
2016-06-10T01:02:31.071Z,49.31
2016-06-10T01:03:28.027Z,49.88
2016-06-10T01:04:27.983Z,49.88
2016-06-10T01:05:27.924Z,49.57
2016-06-10T01:06:27.895Z,49.79
2016-06-10T01:07:31.039Z,49.79
2016-06-10T01:08:30.995Z,49.69
2016-06-10T01:09:30.764Z,50.05
2016-06-10T01:10:28.221Z,50.34
2016-06-10T01:11:27.849Z,51.01
2016-06-10T01:12:30.649Z,51.01
2016-06-10T01:13:27.542Z,50.72
2016-06-10T01:14:27.514Z,50.72
2016-06-10T01:15:30.455Z,50.72
2016-06-10T01:16:27.848Z,50.91
2016-06-10T01:17:27.367Z,50.62
2016-06-10T01:18:27.323Z,50.74
2016-06-10T01:19:27.279Z,50.72
2016-06-10T01:20:27.221Z,50.43
2016-06-10T01:21:27.191Z,50.72
2016-06-10T01:22:27.132Z,50.81
2016-06-10T01:23:30.104Z,51.39
2016-06-10T01:24:30.483Z,51.01
2016-06-10T01:25:27.360Z,51.2
2016-06-10T01:26:29.973Z,51.01
2016-06-10T01:27:29.912Z,51.29
2016-06-10T01:28:26.854Z,51.39
2016-06-10T01:29:29.825Z,51.48
2016-06-10T01:30:29.766Z,51.39
2016-06-10T01:31:26.690Z,51.97
2016-06-10T01:32:26.663Z,51.77
2016-06-10T01:33:26.603Z,51.77
2016-06-10T01:34:29.419Z,51.77
2016-06-10T01:35:26.516Z,51.87
2016-06-10T01:36:26.473Z,52.06
2016-06-10T01:37:26.428Z,51.58
2016-06-10T01:38:26.306Z,51.97
2016-06-10T01:39:26.325Z,51.97
2016-06-10T01:40:29.282Z,51.87
2016-06-10T01:41:29.440Z,51.97
2016-06-10T01:42:26.194Z,52.06
2016-06-10T01:43:26.337Z,52.15
2016-06-10T01:44:29.340Z,51.77
2016-06-10T01:45:26.250Z,51.97
2016-06-10T01:46:25.987Z,51.97
2016-06-10T01:47:26.146Z,52.15
2016-06-10T01:48:25.899Z,52.06
2016-06-10T01:49:28.855Z,52.54
2016-06-10T01:50:25.796Z,52.44
2016-06-10T01:51:25.753Z,53.2
2016-06-10T01:52:25.694Z,52.83
2016-06-10T01:53:25.649Z,52.83
2016-06-10T01:54:28.606Z,52.92
2016-06-10T01:55:25.984Z,52.51
2016-06-10T01:56:25.517Z,52.83
2016-06-10T01:57:28.474Z,52.92
2016-06-10T01:58:25.633Z,53.02
2016-06-10T01:59:25.371Z,52.92
2016-06-10T02:00:25.343Z,52.54
2016-06-10T02:01:25.283Z,52.83
2016-06-10T02:02:25.239Z,52.73
2016-06-10T02:03:25.195Z,52.92
2016-06-10T02:04:28.136Z,52.73
2016-06-10T02:05:25.093Z,52.75
2016-06-10T02:06:25.048Z,53.02
2016-06-10T02:07:25.193Z,52.83
2016-06-10T02:08:24.946Z,52.83
2016-06-10T02:09:24.901Z,52.92
2016-06-10T02:10:24.858Z,52.63
2016-06-10T02:11:24.813Z,52.92
2016-06-10T02:12:24.755Z,52.63
2016-06-10T02:13:24.726Z,53.11
2016-06-10T02:14:24.682Z,52.83
2016-06-10T02:15:24.623Z,53.2
2016-06-10T02:16:24.579Z,53.3
2016-06-10T02:17:24.567Z,53.11
2016-06-10T02:18:24.694Z,53.4
2016-06-10T02:19:24.447Z,53.2
2016-06-10T02:20:27.419Z,53.2
2016-06-10T02:21:27.547Z,53.3
2016-06-10T02:22:27.301Z,53.2
2016-06-10T02:23:27.241Z,53.78
2016-06-10T02:24:27.198Z,53.4
2016-06-10T02:25:24.654Z,53.59
2016-06-10T02:26:24.298Z,53.78
2016-06-10T02:27:24.051Z,53.49
2016-06-10T02:28:24.007Z,53.3
2016-06-10T02:29:23.963Z,53.3
2016-06-10T02:30:23.920Z,54.16
2016-06-10T02:31:23.859Z,53.97
2016-06-10T02:32:24.019Z,53.97
2016-06-10T02:33:26.773Z,53.97
2016-06-10T02:34:23.729Z,53.88
2016-06-10T02:35:23.684Z,53.78
2016-06-10T02:36:26.640Z,54.16
2016-06-10T02:37:23.598Z,53.88
2016-06-10T02:38:23.592Z,54.36
2016-06-10T02:39:23.585Z,54.26
2016-06-10T02:40:23.423Z,54.16
2016-06-10T02:41:23.542Z,54.64
2016-06-10T02:42:23.557Z,54.74
2016-06-10T02:43:23.511Z,55.02
2016-06-10T02:44:23.465Z,54.93
2016-06-10T02:45:23.435Z,55.22
2016-06-10T02:46:23.405Z,55.41
2016-06-10T02:47:26.355Z,55.41
2016-06-10T02:48:23.332Z,55.22
2016-06-10T02:49:23.122Z,55.12
2016-06-10T02:50:23.238Z,55.41
2016-06-10T02:51:23.199Z,55.22
2016-06-10T02:52:23.159Z,55.6
2016-06-10T02:53:23.117Z,55.51
2016-06-10T02:54:23.090Z,55.31
2016-06-10T02:55:23.017Z,55.6
2016-06-10T02:56:22.960Z,55.79
2016-06-10T02:57:22.918Z,55.47
2016-06-10T02:58:25.874Z,55.6
2016-06-10T02:59:22.847Z,55.51
2016-06-10T03:00:22.804Z,55.6
2016-06-10T03:01:22.745Z,55.41
2016-06-10T03:02:25.703Z,55.31
2016-06-10T03:03:25.705Z,55.31
2016-06-10T03:04:22.598Z,55.31
2016-06-10T03:05:22.555Z,55.51
2016-06-10T03:06:22.495Z,55.41
2016-06-10T03:07:22.452Z,55.41
2016-06-10T03:08:22.408Z,55.6
2016-06-10T03:09:22.364Z,55.29
2016-06-10T03:10:25.305Z,55.29
2016-06-10T03:11:22.276Z,55.38
2016-06-10T03:12:22.436Z,55.31
2016-06-10T03:13:25.157Z,55.31
2016-06-10T03:14:22.130Z,55.51
2016-06-10T03:15:22.070Z,55.51
2016-06-10T03:16:22.041Z,56.05
2016-06-10T03:17:22.186Z,56.15
2016-06-10T03:18:24.938Z,55.86
2016-06-10T03:19:24.894Z,55.96
2016-06-10T03:20:21.835Z,55.86
2016-06-10T03:21:21.792Z,55.67
2016-06-10T03:22:21.764Z,55.96
2016-06-10T03:23:21.703Z,56.27
2016-06-10T03:24:21.645Z,55.67
2016-06-10T03:25:22.179Z,55.76
2016-06-10T03:26:21.541Z,55.96
2016-06-10T03:27:21.497Z,56.05
2016-06-10T03:28:21.485Z,56.34
2016-06-10T03:29:21.613Z,56.72
2016-06-10T03:30:21.367Z,56.53
2016-06-10T03:31:21.525Z,56.34
2016-06-10T03:32:24.262Z,56.34
2016-06-10T03:33:24.235Z,56.53
2016-06-10T03:34:21.175Z,56.34
2016-06-10T03:35:24.131Z,56.53
2016-06-10T03:36:21.072Z,56.34
2016-06-10T03:37:24.028Z,56.53
2016-06-10T03:38:23.984Z,56.53
2016-06-10T03:39:20.925Z,56.62
2016-06-10T03:40:21.834Z,56.91
2016-06-10T03:41:23.697Z,57.01
2016-06-10T03:42:20.997Z,57.01
2016-06-10T03:43:20.968Z,56.72
2016-06-10T03:44:20.691Z,56.91
2016-06-10T03:45:20.663Z,57.01
2016-06-10T03:46:23.618Z,57.1
2016-06-10T03:47:20.544Z,56.72
2016-06-10T03:48:20.703Z,56.82
2016-06-10T03:49:20.456Z,57.01
2016-06-10T03:50:20.412Z,56.72
2016-06-10T03:51:20.384Z,56.82
2016-06-10T03:52:23.324Z,56.82
2016-06-10T03:53:23.280Z,56.91
2016-06-10T03:54:23.205Z,56.82
2016-06-10T03:55:20.474Z,57.2
2016-06-10T03:56:20.712Z,57.29
2016-06-10T03:57:20.090Z,57.29
2016-06-10T03:58:26.062Z,57.1
2016-06-10T03:59:19.986Z,57.2
2016-06-10T04:00:22.927Z,57.48
2016-06-10T04:01:19.899Z,57.2
2016-06-10T04:02:19.854Z,57.48
2016-06-10T04:03:22.640Z,57.48
2016-06-10T04:04:19.752Z,57.58
2016-06-10T04:05:19.708Z,57.48
2016-06-10T04:06:22.649Z,57.1
2016-06-10T04:07:22.605Z,57.39
2016-06-10T04:08:22.576Z,57.1
2016-06-10T04:09:19.517Z,57.87
2016-06-10T04:10:20.317Z,57.77
2016-06-10T04:11:19.429Z,57.87
2016-06-10T04:12:22.402Z,57.87
2016-06-10T04:13:22.327Z,57.97
2016-06-10T04:14:22.485Z,57.77
2016-06-10T04:15:22.239Z,58.15
2016-06-10T04:16:19.179Z,58.15
2016-06-10T04:17:19.132Z,58.15
2016-06-10T04:18:19.089Z,58.25
2016-06-10T04:19:19.029Z,58.44
2016-06-10T04:20:22.004Z,58.06
2016-06-10T04:21:21.946Z,58.63
2016-06-10T04:22:18.883Z,58.54
2016-06-10T04:23:18.838Z,58.44
2016-06-10T04:24:18.780Z,58.25
2016-06-10T04:25:18.750Z,58.54
2016-06-10T04:26:22.007Z,58.63
2016-06-10T04:27:18.648Z,58.83
2016-06-10T04:28:21.607Z,58.83
2016-06-10T04:29:18.545Z,58.34
2016-06-10T04:30:18.516Z,58.15
2016-06-10T04:31:18.473Z,58.73
2016-06-10T04:32:18.413Z,58.73
2016-06-10T04:33:18.369Z,58.63
2016-06-10T04:34:18.325Z,58.73
2016-06-10T04:35:18.266Z,58.83
2016-06-10T04:36:18.222Z,58.73
2016-06-10T04:37:18.178Z,58.83
2016-06-10T04:38:18.150Z,58.63
2016-06-10T04:39:18.075Z,58.44
2016-06-10T04:40:21.034Z,58.44
2016-06-10T04:41:23.850Z,58.34
2016-06-10T04:42:20.946Z,58.63
2016-06-10T04:43:20.903Z,59.11
2016-06-10T04:44:21.062Z,58.8
2016-06-10T04:45:20.815Z,58.83
2016-06-10T04:46:17.753Z,59.01
2016-06-10T04:47:17.709Z,58.98
2016-06-10T04:48:23.653Z,58.63
2016-06-10T04:49:17.637Z,58.83
2016-06-10T04:50:20.768Z,59.11
2016-06-10T04:51:20.568Z,59.11
2016-06-10T04:52:17.974Z,58.83
2016-06-10T04:53:20.480Z,58.73
2016-06-10T04:54:17.371Z,58.54
2016-06-10T04:55:17.312Z,58.73
2016-06-10T04:56:17.408Z,58.54
2016-06-10T04:57:17.209Z,58.73
2016-06-10T04:58:17.384Z,58.34
2016-06-10T04:59:17.121Z,58.63
2016-06-10T05:00:17.077Z,59.11
2016-06-10T05:01:17.033Z,58.73
2016-06-10T05:02:17.005Z,58.83
2016-06-10T05:03:16.947Z,59.4
2016-06-10T05:04:16.886Z,59.59
2016-06-10T05:05:19.873Z,59.78
2016-06-10T05:06:16.798Z,59.78
2016-06-10T05:07:16.755Z,59.49
2016-06-10T05:08:19.711Z,59.69
2016-06-10T05:09:16.667Z,59.3
2016-06-10T05:10:16.811Z,59.49
2016-06-10T05:11:16.580Z,59.4
2016-06-10T05:12:19.566Z,59.3
2016-06-10T05:13:16.461Z,58.83
2016-06-10T05:14:16.417Z,59.14
2016-06-10T05:15:16.576Z,58.47
2016-06-10T05:16:16.329Z,58.73
2016-06-10T05:17:16.301Z,58.66
2016-06-10T05:18:16.242Z,58.28
2016-06-10T05:19:16.198Z,58.86
2016-06-10T05:20:16.139Z,58.73
2016-06-10T05:21:16.111Z,58.15
2016-06-10T05:22:16.035Z,58.54
2016-06-10T05:23:15.992Z,58.73
2016-06-10T05:24:15.948Z,58.25
2016-06-10T05:25:15.904Z,58.44
2016-06-10T05:26:16.032Z,58.44
2016-06-10T05:27:15.801Z,58.34
2016-06-10T05:28:15.757Z,58.25
2016-06-10T05:29:15.713Z,58.15
2016-06-10T05:30:18.669Z,58.37
2016-06-10T05:31:15.610Z,58.34
2016-06-10T05:32:18.581Z,57.99
2016-06-10T05:33:15.522Z,57.8
2016-06-10T05:34:15.462Z,58.15
2016-06-10T05:35:15.623Z,57.99
2016-06-10T05:36:18.579Z,57.9
2016-06-10T05:37:15.347Z,57.51
2016-06-10T05:38:15.272Z,57.42
2016-06-10T05:39:18.228Z,57.23
2016-06-10T05:40:18.200Z,57.04
2016-06-10T05:41:15.141Z,56.84
2016-06-10T05:42:15.097Z,56.94
2016-06-10T05:43:15.053Z,57.23
2016-06-10T05:44:15.026Z,56.84
2016-06-10T05:45:14.965Z,57.04
2016-06-10T05:46:21.140Z,57.04
2016-06-10T05:47:14.862Z,56.84
2016-06-10T05:48:14.818Z,56.65
2016-06-10T05:49:14.791Z,56.75
2016-06-10T05:50:14.731Z,56.65
2016-06-10T05:51:14.672Z,56.94
2016-06-10T05:52:17.627Z,56.84
2016-06-10T05:53:17.584Z,56.65
2016-06-10T05:54:14.728Z,56.65
2016-06-10T05:55:17.481Z,56.56
2016-06-10T05:56:15.921Z,55.88
2016-06-10T05:57:14.377Z,56.1
2016-06-10T05:58:14.349Z,55.82
2016-06-10T05:59:14.322Z,55.91
2016-06-10T06:00:14.247Z,56.2
2016-06-10T06:01:14.202Z,56.1
2016-06-10T06:02:14.158Z,55.91
2016-06-10T06:03:14.098Z,56.1
2016-06-10T06:04:14.071Z,55.82
2016-06-10T06:05:14.012Z,55.73
2016-06-10T06:06:17.170Z,55.63
2016-06-10T06:07:13.924Z,55.73
2016-06-10T06:08:13.864Z,55.53
2016-06-10T06:09:13.820Z,55.44
2016-06-10T06:10:19.792Z,55.36
2016-06-10T06:11:13.748Z,55.94
2016-06-10T06:12:13.673Z,56.2
2016-06-10T06:13:13.629Z,56.01
2016-06-10T06:14:13.602Z,56.1
2016-06-10T06:15:13.542Z,56.68
2016-06-10T06:16:13.514Z,56.39
2016-06-10T06:17:13.658Z,56.77
2016-06-10T06:18:13.411Z,57.06
2016-06-10T06:19:13.851Z,57.06
2016-06-10T06:20:13.308Z,56.87
2016-06-10T06:21:13.107Z,56.68
2016-06-10T06:22:13.220Z,57.35
2016-06-10T06:23:13.379Z,57.16
2016-06-10T06:24:16.116Z,57.54
2016-06-10T06:25:13.073Z,57.45
2016-06-10T06:26:16.982Z,57.92
2016-06-10T06:27:13.172Z,57.83
2016-06-10T06:28:12.942Z,58.02
2016-06-10T06:29:16.101Z,57.92
2016-06-10T06:30:16.056Z,58.4
2016-06-10T06:31:15.794Z,58.22
2016-06-10T06:32:12.751Z,58.22
2016-06-10T06:33:15.707Z,58.22
2016-06-10T06:34:12.663Z,58.22
2016-06-10T06:35:12.619Z,58.02
2016-06-10T06:36:12.560Z,58.22
2016-06-10T06:37:15.531Z,57.83
2016-06-10T06:38:12.472Z,57.92
2016-06-10T06:39:15.428Z,57.35
2016-06-10T06:40:12.384Z,57.57
2016-06-10T06:41:12.185Z,57.19
2016-06-10T06:42:15.281Z,57.09
2016-06-10T06:43:15.253Z,57.09
2016-06-10T06:44:12.225Z,57.28
2016-06-10T06:45:12.119Z,57.67
2016-06-10T06:46:12.091Z,57.67
2016-06-10T06:47:12.344Z,57.67
2016-06-10T06:48:12.003Z,57.67
2016-06-10T06:49:11.943Z,57.38
2016-06-10T06:50:14.962Z,56.9
2016-06-10T06:51:11.856Z,57.09
2016-06-10T06:52:11.828Z,56.61
2016-06-10T06:53:11.784Z,57.09
2016-06-10T06:54:11.724Z,56.81
2016-06-10T06:55:11.665Z,56.71
2016-06-10T06:56:12.511Z,56.9
2016-06-10T06:57:11.578Z,56.81
2016-06-10T06:58:11.534Z,56.71
2016-06-10T06:59:11.490Z,56.71
2016-06-10T07:00:15.992Z,57.09
2016-06-10T07:01:14.402Z,56.04
2016-06-10T07:02:11.343Z,55.85
2016-06-10T07:03:11.299Z,56.04
2016-06-10T07:04:11.271Z,56.04
2016-06-10T07:05:11.212Z,55.75
2016-06-10T07:06:11.167Z,55.65
2016-06-10T07:07:14.311Z,55.08
2016-06-10T07:08:11.081Z,55.18
2016-06-10T07:09:11.724Z,54.79
2016-06-10T07:10:14.196Z,54.89
2016-06-10T07:11:13.901Z,55.05
2016-06-10T07:12:16.780Z,54.96
2016-06-10T07:13:13.846Z,55.05
2016-06-10T07:14:13.817Z,55.05
2016-06-10T07:15:13.789Z,54.41
2016-06-10T07:16:13.776Z,53.74
2016-06-10T07:17:13.654Z,53.93
2016-06-10T07:18:13.611Z,53.36
2016-06-10T07:19:16.614Z,53.64
2016-06-10T07:20:10.726Z,53.16
2016-06-10T07:21:10.464Z,53.36
2016-06-10T07:22:10.748Z,53.67
2016-06-10T07:23:10.376Z,52.59
2016-06-10T07:24:14.175Z,53.19
2016-06-10T07:25:10.508Z,53
2016-06-10T07:26:10.245Z,52.62
2016-06-10T07:27:10.185Z,53
2016-06-10T07:28:10.251Z,52.42
2016-06-10T07:29:10.098Z,52.52
2016-06-10T07:30:10.054Z,53
2016-06-10T07:31:13.011Z,52.91
2016-06-10T07:32:09.966Z,52.62
2016-06-10T07:33:12.922Z,52.62
2016-06-10T07:34:13.473Z,52.04
2016-06-10T07:35:09.819Z,52.04
2016-06-10T07:36:09.978Z,51.28
2016-06-10T07:37:09.919Z,51.28
2016-06-10T07:38:09.891Z,50.6
2016-06-10T07:39:09.644Z,50.32
2016-06-10T07:40:09.585Z,50.03
2016-06-10T07:41:09.744Z,49.74
2016-06-10T07:42:09.497Z,48.78
2016-06-10T07:43:09.469Z,48.11
2016-06-10T07:44:09.410Z,47.25
2016-06-10T07:45:09.459Z,46.29
2016-06-10T07:46:09.322Z,46.58
2016-06-10T07:47:09.278Z,46.58
2016-06-10T07:48:12.374Z,46.7
2016-06-10T07:49:09.378Z,47.08
2016-06-10T07:50:09.380Z,47.08
2016-06-10T07:51:09.166Z,46.89
2016-06-10T07:52:09.121Z,47.27
2016-06-10T07:53:09.686Z,47.75
2016-06-10T07:54:08.987Z,48.3
2016-06-10T07:55:08.896Z,48.59
2016-06-10T07:56:15.306Z,48.78
2016-06-10T07:57:09.027Z,48.23
2016-06-10T07:58:08.953Z,48.23
2016-06-10T07:59:11.908Z,47.56
2016-06-10T08:00:08.677Z,47.27
2016-06-10T08:01:11.650Z,46.41
2016-06-10T08:02:08.575Z,45.93
2016-06-10T08:03:08.514Z,45.54
2016-06-10T08:04:08.331Z,45.36
2016-06-10T08:05:11.459Z,45.16
2016-06-10T08:06:11.899Z,44.3
2016-06-10T08:07:11.355Z,44.49
2016-06-10T08:08:08.343Z,43.99
2016-06-10T08:09:11.268Z,43.44
2016-06-10T08:10:08.739Z,43.34
2016-06-10T08:11:08.258Z,43.15
2016-06-10T08:12:08.105Z,42.77
2016-06-10T08:13:08.077Z,42.67
2016-06-10T08:14:08.034Z,42.77
2016-06-10T08:15:07.989Z,41.71
2016-06-10T08:16:10.961Z,41.52
2016-06-10T08:17:08.089Z,41.13
2016-06-10T08:18:07.826Z,41.13
2016-06-10T08:19:10.799Z,41.13
2016-06-10T08:20:07.770Z,41.06
2016-06-10T08:21:07.711Z,41.25
2016-06-10T08:22:07.651Z,41.44
2016-06-10T08:23:10.639Z,41.06
2016-06-10T08:24:07.860Z,40.87
2016-06-10T08:25:07.910Z,40.96
2016-06-10T08:26:13.538Z,41.35
2016-06-10T08:27:07.416Z,41.25
2016-06-10T08:28:07.372Z,41.35
2016-06-10T08:29:07.329Z,41.25
2016-06-10T08:30:07.285Z,41.35
2016-06-10T08:31:07.225Z,41.35
2016-06-10T08:32:08.260Z,41.25
2016-06-10T08:33:07.137Z,41.46
2016-06-10T08:34:06.953Z,40.99
2016-06-10T08:35:07.050Z,40.6
2016-06-10T08:36:06.866Z,40.12
2016-06-10T08:37:06.963Z,39.83
2016-06-10T08:38:06.982Z,39.83
2016-06-10T08:39:06.875Z,40.12
2016-06-10T08:40:06.847Z,40.22
2016-06-10T08:41:09.991Z,40.02
2016-06-10T08:42:07.151Z,40.22
2016-06-10T08:43:06.700Z,39.64
2016-06-10T08:44:06.640Z,39.53
2016-06-10T08:45:06.596Z,39.35
2016-06-10T08:46:06.568Z,39.26
2016-06-10T08:47:09.713Z,38.1
2016-06-10T08:48:06.450Z,37.43
2016-06-10T08:49:06.422Z,37.24
2016-06-10T08:50:06.362Z,36.76
2016-06-10T08:51:09.334Z,36.28
2016-06-10T08:52:06.290Z,35.8
2016-06-10T08:53:06.309Z,34.94
2016-06-10T08:54:09.202Z,34.27
2016-06-10T08:55:06.269Z,34.45
2016-06-10T08:56:06.381Z,34.27
2016-06-10T08:57:06.227Z,33.78
2016-06-10T08:58:09.090Z,33.8
2016-06-10T08:59:05.968Z,33.13
2016-06-10T09:00:05.940Z,33.13
2016-06-10T09:01:05.865Z,32.17
2016-06-10T09:02:05.852Z,31.79
2016-06-10T09:03:06.027Z,31.59
2016-06-10T09:04:05.733Z,31.21
2016-06-10T09:05:05.971Z,31.11
2016-06-10T09:06:05.662Z,31.3
2016-06-10T09:07:05.618Z,31.3
2016-06-10T09:08:05.558Z,30.92
2016-06-10T09:09:05.498Z,30.63
2016-06-10T09:10:05.470Z,30.73
2016-06-10T09:11:05.411Z,30.73
2016-06-10T09:12:05.992Z,30.73
2016-06-10T09:13:05.354Z,30.82
2016-06-10T09:14:05.374Z,31.11
2016-06-10T09:15:05.080Z,31.3
2016-06-10T09:16:05.035Z,31.21
2016-06-10T09:17:05.133Z,31.21
2016-06-10T09:18:05.105Z,30.92
2016-06-10T09:19:05.061Z,31.03
2016-06-10T09:20:05.001Z,30.93
2016-06-10T09:21:04.973Z,30.73
2016-06-10T09:22:04.913Z,31.4
2016-06-10T09:23:04.870Z,31.69
2016-06-10T09:24:04.842Z,31.69
2016-06-10T09:25:07.798Z,32.07
2016-06-10T09:26:04.723Z,32.46
2016-06-10T09:27:04.929Z,32.36
2016-06-10T09:28:05.745Z,32.46
2016-06-10T09:29:07.606Z,32.26
2016-06-10T09:30:07.579Z,32.17
2016-06-10T09:31:04.598Z,31.98
2016-06-10T09:32:07.460Z,32.07
2016-06-10T09:33:10.433Z,31.98
2016-06-10T09:34:04.372Z,32.17
2016-06-10T09:35:04.375Z,31.51
2016-06-10T09:36:07.285Z,31.23
2016-06-10T09:37:04.241Z,30.84
2016-06-10T09:38:04.400Z,30.93
2016-06-10T09:39:04.153Z,30.46
2016-06-10T09:40:04.094Z,30.36
2016-06-10T09:41:16.285Z,29.69
2016-06-10T09:42:07.069Z,29.11
2016-06-10T09:43:06.978Z,28.15
2016-06-10T09:44:03.950Z,27.39
2016-06-10T09:45:03.719Z,26.42
2016-06-10T09:46:06.878Z,26.05
2016-06-10T09:47:03.803Z,25.84
2016-06-10T09:48:06.743Z,25.56
2016-06-10T09:49:03.701Z,25.85
2016-06-10T09:50:03.672Z,25.65
2016-06-10T09:51:06.612Z,26.23
2016-06-10T09:52:03.569Z,26.42
2016-06-10T09:53:03.509Z,26.61
2016-06-10T09:54:03.481Z,26.82
2016-06-10T09:55:06.453Z,25.95
2016-06-10T09:56:06.378Z,25.47
2016-06-10T09:57:06.209Z,25.85
2016-06-10T09:58:03.290Z,25.85
2016-06-10T09:59:03.449Z,25.95
2016-06-10T10:00:03.202Z,26.24
2016-06-10T10:01:03.221Z,25.95
2016-06-10T10:02:03.130Z,26.05
2016-06-10T10:03:03.102Z,26.05
2016-06-10T10:04:03.028Z,26.06
2016-06-10T10:05:02.984Z,26.06
2016-06-10T10:06:02.940Z,26.06
2016-06-10T10:07:02.959Z,26.16
2016-06-10T10:08:05.915Z,26.25
2016-06-10T10:09:02.824Z,26.25
2016-06-10T10:10:02.749Z,26.35
2016-06-10T10:11:02.924Z,26.82
2016-06-10T10:12:02.505Z,26.92
2016-06-10T10:13:02.852Z,26.62
2016-06-10T10:14:05.620Z,26.64
2016-06-10T10:15:02.530Z,26.73
2016-06-10T10:16:02.518Z,26.73
2016-06-10T10:17:02.614Z,26.45
2016-06-10T10:18:02.257Z,26.45
2016-06-10T10:19:05.213Z,26.46
2016-06-10T10:20:05.171Z,26.17
2016-06-10T10:21:02.095Z,26.46
2016-06-10T10:22:02.426Z,26.45
2016-06-10T10:23:08.195Z,26.45
2016-06-10T10:24:11.370Z,26.46
2016-06-10T10:25:02.076Z,26.35
2016-06-10T10:26:01.876Z,26.84
2016-06-10T10:27:02.410Z,26.83
2016-06-10T10:28:02.726Z,26.36
2016-06-10T10:29:01.901Z,26.56
2016-06-10T10:30:01.857Z,26.27
2016-06-10T10:31:01.813Z,25.88
2016-06-10T10:32:01.769Z,25.69
2016-06-10T10:33:01.710Z,25.8
2016-06-10T10:34:01.682Z,25.69
2016-06-10T10:35:01.654Z,25.79
2016-06-10T10:36:05.001Z,25.69
2016-06-10T10:37:01.551Z,25.11
2016-06-10T10:38:04.507Z,25.02
2016-06-10T10:39:01.307Z,24.93
2016-06-10T10:40:01.466Z,24.84
2016-06-10T10:41:01.579Z,24.65
2016-06-10T10:42:04.582Z,25.12
2016-06-10T10:43:01.288Z,24.84
2016-06-10T10:44:01.259Z,24.93
2016-06-10T10:45:01.216Z,24.93
2016-06-10T10:46:01.157Z,25.03
2016-06-10T10:47:01.128Z,25.22
2016-06-10T10:48:01.068Z,25.12
2016-06-10T10:49:01.102Z,25.12
2016-06-10T10:50:00.997Z,24.63
2016-06-10T10:51:04.016Z,24.07
2016-06-10T10:52:00.878Z,23.68
2016-06-10T10:53:03.834Z,23.78
2016-06-10T10:54:00.790Z,23.58
2016-06-10T10:55:01.449Z,23.39
2016-06-10T10:56:00.703Z,23.3
2016-06-10T10:57:09.550Z,22.72
2016-06-10T10:58:00.678Z,22.81
2016-06-10T10:59:00.603Z,22.62
2016-06-10T11:00:00.433Z,22.33
2016-06-10T11:01:03.702Z,21.95
2016-06-10T11:02:00.533Z,21.37
2016-06-10T11:03:00.412Z,21.27
2016-06-10T11:04:00.384Z,20.98
2016-06-10T11:05:00.324Z,20.79
2016-06-10T11:06:00.280Z,20.4
2016-06-10T11:07:00.236Z,19.93
2016-06-10T11:08:00.177Z,19.73
2016-06-10T11:09:03.352Z,19.17
2016-06-10T11:10:00.105Z,19.25
2016-06-10T11:11:00.265Z,19.06
2016-06-10T11:12:02.908Z,17.81
2016-06-10T11:13:02.959Z,17.82
2016-06-10T11:13:59.945Z,17.14
2016-06-10T11:14:59.885Z,17.14
2016-06-10T11:15:59.858Z,16.56
2016-06-10T11:16:59.814Z,17.05
2016-06-10T11:18:02.942Z,16.66
2016-06-10T11:18:59.711Z,17.05
2016-06-10T11:19:59.667Z,17.14
2016-06-10T11:20:59.640Z,17.14
2016-06-10T11:21:59.565Z,17.24
2016-06-10T11:22:59.520Z,17.43
2016-06-10T11:23:59.993Z,17.61
2016-06-10T11:24:59.448Z,17.81
2016-06-10T11:25:59.405Z,17.71
2016-06-10T11:26:59.423Z,17.91
2016-06-10T11:28:00.114Z,17.91
2016-06-10T11:28:59.304Z,18.68
2016-06-10T11:29:59.228Z,18.38
2016-06-10T11:30:59.451Z,18.3
2016-06-10T11:31:59.157Z,18.59
2016-06-10T11:33:02.316Z,17.91
2016-06-10T11:33:59.054Z,18.01
2016-06-10T11:34:59.010Z,17.91
2016-06-10T11:35:59.091Z,17.24
2016-06-10T11:36:58.922Z,17.24
2016-06-10T11:37:58.878Z,17.33
2016-06-10T11:38:58.820Z,17.15
2016-06-10T11:39:58.776Z,16.96
2016-06-10T11:40:58.731Z,16.96
2016-06-10T11:41:58.765Z,16.67
2016-06-10T11:42:58.785Z,17.05
2016-06-10T11:43:58.615Z,17.15
2016-06-10T11:44:58.611Z,17.15
2016-06-10T11:45:58.621Z,17.15
2016-06-10T11:46:58.602Z,17.35
2016-06-10T11:47:58.613Z,17.35
2016-06-10T11:49:01.582Z,16.86
2016-06-10T11:49:58.569Z,16.67
2016-06-10T11:50:58.523Z,16.86
2016-06-10T11:51:58.510Z,16.96
2016-06-10T11:52:58.465Z,16.86
2016-06-10T11:53:58.446Z,16.87
2016-06-10T11:54:58.392Z,16.47
2016-06-10T11:56:01.353Z,16.19
2016-06-10T11:56:58.518Z,16.29
2016-06-10T11:57:58.995Z,16.39
2016-06-10T11:58:58.283Z,16.77
2016-06-10T11:59:58.209Z,17.16
2016-06-10T12:00:58.167Z,16.87
2016-06-10T12:01:58.517Z,17.16
2016-06-10T12:02:58.069Z,18.03
2016-06-10T12:03:58.026Z,18.22
2016-06-10T12:05:00.998Z,17.93
2016-06-10T12:05:57.939Z,18.32
2016-06-10T12:06:57.973Z,18.22
2016-06-10T12:08:00.868Z,18.6
2016-06-10T12:09:00.840Z,18.51
2016-06-10T12:09:57.780Z,18.41
2016-06-10T12:11:00.878Z,18.12
2016-06-10T12:12:00.695Z,17.94
2016-06-10T12:12:57.698Z,17.75
2016-06-10T12:13:57.623Z,17.55
2016-06-10T12:14:57.563Z,17.46
2016-06-10T12:15:57.520Z,17.46
2016-06-10T12:16:57.522Z,17.27
2016-06-10T12:17:57.448Z,17.46
2016-06-10T12:18:57.404Z,17.55
2016-06-10T12:19:57.345Z,17.84
2016-06-10T12:20:57.301Z,17.84
2016-06-10T12:21:57.319Z,17.84
2016-06-10T12:22:57.213Z,17.65
2016-06-10T12:23:57.201Z,17.55
2016-06-10T12:24:57.126Z,17.27
2016-06-10T12:25:57.113Z,17.55
2016-06-10T12:26:57.100Z,17.07
2016-06-10T12:27:57.026Z,17.18
2016-06-10T12:28:56.793Z,16.79
2016-06-10T12:29:56.922Z,16.5
2016-06-10T12:30:59.910Z,16.41
2016-06-10T12:31:56.849Z,16.31
2016-06-10T12:32:56.665Z,16.31
2016-06-10T12:33:56.747Z,16.41
2016-06-10T12:34:56.703Z,16.03
2016-06-10T12:35:56.675Z,15.93
2016-06-10T12:36:56.600Z,15.55
2016-06-10T12:37:56.571Z,14.87
2016-06-10T12:38:56.747Z,14.78
2016-06-10T12:39:56.687Z,14.49
2016-06-10T12:40:56.455Z,14.49
2016-06-10T12:41:56.599Z,14.68
2016-06-10T12:42:56.462Z,14.78
2016-06-10T12:43:56.340Z,14.87
2016-06-10T12:44:56.109Z,15.07
2016-06-10T12:45:56.221Z,15.17
2016-06-10T12:46:56.240Z,15.07
2016-06-10T12:47:56.368Z,15.65
2016-06-10T12:48:56.168Z,15.17
2016-06-10T12:49:59.077Z,15.07
2016-06-10T12:50:56.097Z,14.97
2016-06-10T12:51:56.114Z,14.97
2016-06-10T12:52:55.931Z,15.08
2016-06-10T12:53:55.730Z,15.08